sensor_id;sensor_type;location;lat;lon;timestamp;temperature;humidity
31783;DHT22;18351;47.560;9.708;2024-01-07T00:01:31;3.10;99.90
31783;DHT22;18351;47.560;9.708;2024-01-07T00:03:56;3.10;99.90
31783;DHT22;18351;47.560;9.708;2024-01-07T00:06:22;3.20;99.90
31783;DHT22;18351;47.560;9.708;2024-01-07T00:08:48;3.20;99.90
31783;DHT22;18351;47.560;9.708;2024-01-07T00:11:14;3.20;99.90
31783;DHT22;18351;47.560;9.708;2024-01-07T00:13:39;3.20;99.90
31783;DHT22;18351;47.560;9.708;2024-01-07T00:16:05;3.20;99.90
31783;DHT22;18351;47.560;9.708;2024-01-07T00:18:30;3.10;99.90
31783;DHT22;18351;47.560;9.708;2024-01-07T00:20:56;3.10;99.90
31783;DHT22;18351;47.560;9.708;2024-01-07T00:23:21;3.10;99.90
31783;DHT22;18351;47.560;9.708;2024-01-07T00:25:47;3.10;99.90
31783;DHT22;18351;47.560;9.708;2024-01-07T00:28:13;3.10;99.90
31783;DHT22;18351;47.560;9.708;2024-01-07T00:30:39;3.10;99.90
31783;DHT22;18351;47.560;9.708;2024-01-07T00:33:04;3.10;99.90
31783;DHT22;18351;47.560;9.708;2024-01-07T00:35:30;3.10;99.90
31783;DHT22;18351;47.560;9.708;2024-01-07T00:37:55;3.10;99.90
31783;DHT22;18351;47.560;9.708;2024-01-07T00:40:22;3.20;99.90
31783;DHT22;18351;47.560;9.708;2024-01-07T00:42:48;3.10;99.90
31783;DHT22;18351;47.560;9.708;2024-01-07T00:45:14;3.10;99.90
31783;DHT22;18351;47.560;9.708;2024-01-07T00:47:39;3.10;99.90
31783;DHT22;18351;47.560;9.708;2024-01-07T00:50:05;3.10;99.90
31783;DHT22;18351;47.560;9.708;2024-01-07T00:52:31;3.20;99.90
31783;DHT22;18351;47.560;9.708;2024-01-07T00:54:56;3.20;99.90
31783;DHT22;18351;47.560;9.708;2024-01-07T00:57:22;3.20;99.90
31783;DHT22;18351;47.560;9.708;2024-01-07T00:59:47;3.20;99.90
31783;DHT22;18351;47.560;9.708;2024-01-07T01:02:13;3.20;99.90
31783;DHT22;18351;47.560;9.708;2024-01-07T01:04:39;3.20;99.90
31783;DHT22;18351;47.560;9.708;2024-01-07T01:07:05;3.20;99.90
31783;DHT22;18351;47.560;9.708;2024-01-07T01:09:33;3.20;99.90
31783;DHT22;18351;47.560;9.708;2024-01-07T01:11:58;3.20;99.90
31783;DHT22;18351;47.560;9.708;2024-01-07T01:14:24;3.20;99.90
31783;DHT22;18351;47.560;9.708;2024-01-07T01:16:49;3.20;99.90
31783;DHT22;18351;47.560;9.708;2024-01-07T01:19:15;3.20;99.90
31783;DHT22;18351;47.560;9.708;2024-01-07T01:21:40;3.20;99.90
31783;DHT22;18351;47.560;9.708;2024-01-07T01:24:06;3.20;99.90
31783;DHT22;18351;47.560;9.708;2024-01-07T01:26:31;3.20;99.90
31783;DHT22;18351;47.560;9.708;2024-01-07T01:28:57;3.10;99.90
31783;DHT22;18351;47.560;9.708;2024-01-07T01:31:22;3.10;99.90
31783;DHT22;18351;47.560;9.708;2024-01-07T01:33:48;3.10;99.90
31783;DHT22;18351;47.560;9.708;2024-01-07T01:36:14;3.10;99.90
31783;DHT22;18351;47.560;9.708;2024-01-07T01:38:39;3.10;99.90
31783;DHT22;18351;47.560;9.708;2024-01-07T01:41:05;3.10;99.90
31783;DHT22;18351;47.560;9.708;2024-01-07T01:43:31;3.10;99.90
31783;DHT22;18351;47.560;9.708;2024-01-07T01:45:56;3.10;99.90
31783;DHT22;18351;47.560;9.708;2024-01-07T01:48:26;3.10;99.90
31783;DHT22;18351;47.560;9.708;2024-01-07T01:50:53;3.00;99.90
31783;DHT22;18351;47.560;9.708;2024-01-07T01:53:19;3.00;99.90
31783;DHT22;18351;47.560;9.708;2024-01-07T01:55:45;3.10;99.90
31783;DHT22;18351;47.560;9.708;2024-01-07T01:58:13;3.10;99.90
31783;DHT22;18351;47.560;9.708;2024-01-07T02:00:38;3.10;99.90
31783;DHT22;18351;47.560;9.708;2024-01-07T02:03:04;3.10;99.90
31783;DHT22;18351;47.560;9.708;2024-01-07T02:05:30;3.10;99.90
31783;DHT22;18351;47.560;9.708;2024-01-07T02:07:56;3.10;99.90
31783;DHT22;18351;47.560;9.708;2024-01-07T02:10:22;3.10;99.90
31783;DHT22;18351;47.560;9.708;2024-01-07T02:12:48;3.10;99.90
31783;DHT22;18351;47.560;9.708;2024-01-07T02:15:14;3.10;99.90
31783;DHT22;18351;47.560;9.708;2024-01-07T02:17:40;3.10;99.90
31783;DHT22;18351;47.560;9.708;2024-01-07T02:20:06;3.20;99.90
31783;DHT22;18351;47.560;9.708;2024-01-07T02:22:32;3.10;99.90
31783;DHT22;18351;47.560;9.708;2024-01-07T02:24:57;3.20;99.90
31783;DHT22;18351;47.560;9.708;2024-01-07T02:27:23;3.10;99.90
31783;DHT22;18351;47.560;9.708;2024-01-07T02:29:48;3.10;99.90
31783;DHT22;18351;47.560;9.708;2024-01-07T02:32:14;3.00;99.90
31783;DHT22;18351;47.560;9.708;2024-01-07T02:34:39;3.10;99.90
31783;DHT22;18351;47.560;9.708;2024-01-07T02:37:05;3.10;99.90
31783;DHT22;18351;47.560;9.708;2024-01-07T02:39:30;3.10;99.90
31783;DHT22;18351;47.560;9.708;2024-01-07T02:41:56;3.10;99.90
31783;DHT22;18351;47.560;9.708;2024-01-07T02:44:22;3.10;99.90
31783;DHT22;18351;47.560;9.708;2024-01-07T02:46:47;3.00;99.90
31783;DHT22;18351;47.560;9.708;2024-01-07T02:49:13;3.00;99.90
31783;DHT22;18351;47.560;9.708;2024-01-07T02:51:38;3.00;99.90
31783;DHT22;18351;47.560;9.708;2024-01-07T02:54:04;2.90;99.90
31783;DHT22;18351;47.560;9.708;2024-01-07T02:56:29;3.00;99.90
31783;DHT22;18351;47.560;9.708;2024-01-07T02:58:55;3.00;99.90
31783;DHT22;18351;47.560;9.708;2024-01-07T03:01:24;3.00;99.90
31783;DHT22;18351;47.560;9.708;2024-01-07T03:03:50;3.00;99.90
31783;DHT22;18351;47.560;9.708;2024-01-07T03:06:16;3.00;99.90
31783;DHT22;18351;47.560;9.708;2024-01-07T03:08:42;3.00;99.90
31783;DHT22;18351;47.560;9.708;2024-01-07T03:11:08;3.00;99.90
31783;DHT22;18351;47.560;9.708;2024-01-07T03:13:33;3.00;99.90
31783;DHT22;18351;47.560;9.708;2024-01-07T03:15:59;2.90;99.90
31783;DHT22;18351;47.560;9.708;2024-01-07T03:18:25;3.00;99.90
31783;DHT22;18351;47.560;9.708;2024-01-07T03:20:51;3.00;99.90
31783;DHT22;18351;47.560;9.708;2024-01-07T03:23:17;3.00;99.90
31783;DHT22;18351;47.560;9.708;2024-01-07T03:25:44;3.00;99.90
31783;DHT22;18351;47.560;9.708;2024-01-07T03:28:09;3.00;99.90
31783;DHT22;18351;47.560;9.708;2024-01-07T03:30:35;3.10;99.90
31783;DHT22;18351;47.560;9.708;2024-01-07T03:33:00;3.10;99.90
31783;DHT22;18351;47.560;9.708;2024-01-07T03:35:27;3.10;99.90
31783;DHT22;18351;47.560;9.708;2024-01-07T03:37:53;3.10;99.90
31783;DHT22;18351;47.560;9.708;2024-01-07T03:40:18;3.10;99.90
31783;DHT22;18351;47.560;9.708;2024-01-07T03:42:44;3.10;99.90
31783;DHT22;18351;47.560;9.708;2024-01-07T03:45:10;3.10;99.90
31783;DHT22;18351;47.560;9.708;2024-01-07T03:47:35;3.10;99.90
31783;DHT22;18351;47.560;9.708;2024-01-07T03:50:01;3.20;99.90
31783;DHT22;18351;47.560;9.708;2024-01-07T03:52:26;3.20;99.90
31783;DHT22;18351;47.560;9.708;2024-01-07T03:54:53;3.10;99.90
31783;DHT22;18351;47.560;9.708;2024-01-07T03:57:19;3.10;99.90
31783;DHT22;18351;47.560;9.708;2024-01-07T03:59:44;3.10;99.90
31783;DHT22;18351;47.560;9.708;2024-01-07T04:02:10;3.10;99.90
31783;DHT22;18351;47.560;9.708;2024-01-07T04:04:37;3.00;99.90
31783;DHT22;18351;47.560;9.708;2024-01-07T04:07:02;3.00;99.90
31783;DHT22;18351;47.560;9.708;2024-01-07T04:09:28;3.00;99.90
31783;DHT22;18351;47.560;9.708;2024-01-07T04:11:53;3.00;99.90
31783;DHT22;18351;47.560;9.708;2024-01-07T04:14:19;2.90;99.90
31783;DHT22;18351;47.560;9.708;2024-01-07T04:16:44;2.90;99.90
31783;DHT22;18351;47.560;9.708;2024-01-07T04:19:10;2.90;99.90
31783;DHT22;18351;47.560;9.708;2024-01-07T04:21:35;2.90;99.90
31783;DHT22;18351;47.560;9.708;2024-01-07T04:24:01;2.90;99.90
31783;DHT22;18351;47.560;9.708;2024-01-07T04:26:27;2.90;99.90
31783;DHT22;18351;47.560;9.708;2024-01-07T04:28:52;2.90;99.90
31783;DHT22;18351;47.560;9.708;2024-01-07T04:31:18;2.90;99.90
31783;DHT22;18351;47.560;9.708;2024-01-07T04:33:43;2.90;99.90
31783;DHT22;18351;47.560;9.708;2024-01-07T04:36:09;2.80;99.90
31783;DHT22;18351;47.560;9.708;2024-01-07T04:38:35;2.80;99.90
31783;DHT22;18351;47.560;9.708;2024-01-07T04:41:00;2.90;99.90
31783;DHT22;18351;47.560;9.708;2024-01-07T04:43:26;2.90;99.90
31783;DHT22;18351;47.560;9.708;2024-01-07T04:45:51;2.90;99.90
31783;DHT22;18351;47.560;9.708;2024-01-07T04:48:17;2.90;99.90
31783;DHT22;18351;47.560;9.708;2024-01-07T04:50:42;2.90;99.90
31783;DHT22;18351;47.560;9.708;2024-01-07T04:53:08;2.90;99.90
31783;DHT22;18351;47.560;9.708;2024-01-07T04:55:34;2.90;99.90
31783;DHT22;18351;47.560;9.708;2024-01-07T04:58:00;2.90;99.90
31783;DHT22;18351;47.560;9.708;2024-01-07T05:00:26;2.90;99.90
31783;DHT22;18351;47.560;9.708;2024-01-07T05:02:52;2.90;99.90
31783;DHT22;18351;47.560;9.708;2024-01-07T05:05:18;2.90;99.90
31783;DHT22;18351;47.560;9.708;2024-01-07T05:07:43;2.90;99.90
31783;DHT22;18351;47.560;9.708;2024-01-07T05:10:09;2.90;99.90
31783;DHT22;18351;47.560;9.708;2024-01-07T05:12:34;2.90;99.90
31783;DHT22;18351;47.560;9.708;2024-01-07T05:15:00;2.90;99.90
31783;DHT22;18351;47.560;9.708;2024-01-07T05:17:25;2.90;99.90
31783;DHT22;18351;47.560;9.708;2024-01-07T05:19:51;2.90;99.90
31783;DHT22;18351;47.560;9.708;2024-01-07T05:22:16;3.00;99.90
31783;DHT22;18351;47.560;9.708;2024-01-07T05:24:42;3.00;99.90
31783;DHT22;18351;47.560;9.708;2024-01-07T05:27:08;3.00;99.90
31783;DHT22;18351;47.560;9.708;2024-01-07T05:29:34;3.00;99.90
31783;DHT22;18351;47.560;9.708;2024-01-07T05:32:00;3.00;99.90
31783;DHT22;18351;47.560;9.708;2024-01-07T05:34:27;3.00;99.90
31783;DHT22;18351;47.560;9.708;2024-01-07T05:36:53;2.90;99.90
31783;DHT22;18351;47.560;9.708;2024-01-07T05:39:18;2.80;99.90
31783;DHT22;18351;47.560;9.708;2024-01-07T05:41:44;2.80;99.90
31783;DHT22;18351;47.560;9.708;2024-01-07T05:44:09;2.90;99.90
31783;DHT22;18351;47.560;9.708;2024-01-07T05:46:39;2.90;99.90
31783;DHT22;18351;47.560;9.708;2024-01-07T05:49:05;2.90;99.90
31783;DHT22;18351;47.560;9.708;2024-01-07T05:51:30;2.90;99.90
31783;DHT22;18351;47.560;9.708;2024-01-07T05:53:56;2.90;99.90
31783;DHT22;18351;47.560;9.708;2024-01-07T05:56:22;2.90;99.90
31783;DHT22;18351;47.560;9.708;2024-01-07T05:58:47;2.90;99.90
31783;DHT22;18351;47.560;9.708;2024-01-07T06:01:19;2.80;99.90
31783;DHT22;18351;47.560;9.708;2024-01-07T06:03:45;2.80;99.90
31783;DHT22;18351;47.560;9.708;2024-01-07T06:06:12;2.80;99.90
31783;DHT22;18351;47.560;9.708;2024-01-07T06:08:38;2.80;99.90
31783;DHT22;18351;47.560;9.708;2024-01-07T06:11:03;2.80;99.90
31783;DHT22;18351;47.560;9.708;2024-01-07T06:13:29;2.70;99.90
31783;DHT22;18351;47.560;9.708;2024-01-07T06:15:55;2.70;99.90
31783;DHT22;18351;47.560;9.708;2024-01-07T06:18:20;2.70;99.90
31783;DHT22;18351;47.560;9.708;2024-01-07T06:20:46;2.70;99.90
31783;DHT22;18351;47.560;9.708;2024-01-07T06:23:11;2.70;99.90
31783;DHT22;18351;47.560;9.708;2024-01-07T06:25:37;2.70;99.90
31783;DHT22;18351;47.560;9.708;2024-01-07T06:28:03;2.70;99.90
31783;DHT22;18351;47.560;9.708;2024-01-07T06:30:28;2.80;99.90
31783;DHT22;18351;47.560;9.708;2024-01-07T06:32:54;2.80;99.90
31783;DHT22;18351;47.560;9.708;2024-01-07T06:35:20;2.80;99.90
31783;DHT22;18351;47.560;9.708;2024-01-07T06:37:46;2.70;99.90
31783;DHT22;18351;47.560;9.708;2024-01-07T06:40:11;2.70;99.90
31783;DHT22;18351;47.560;9.708;2024-01-07T06:42:37;2.70;99.90
31783;DHT22;18351;47.560;9.708;2024-01-07T06:45:03;2.70;99.90
31783;DHT22;18351;47.560;9.708;2024-01-07T06:47:29;2.80;99.90
31783;DHT22;18351;47.560;9.708;2024-01-07T06:49:54;2.80;99.90
31783;DHT22;18351;47.560;9.708;2024-01-07T06:52:20;2.80;99.90
31783;DHT22;18351;47.560;9.708;2024-01-07T06:54:46;2.80;99.90
31783;DHT22;18351;47.560;9.708;2024-01-07T06:57:12;2.80;99.90
31783;DHT22;18351;47.560;9.708;2024-01-07T06:59:37;2.80;99.90
31783;DHT22;18351;47.560;9.708;2024-01-07T07:02:03;2.80;99.90
31783;DHT22;18351;47.560;9.708;2024-01-07T07:04:28;2.90;99.90
31783;DHT22;18351;47.560;9.708;2024-01-07T07:06:54;2.80;99.90
31783;DHT22;18351;47.560;9.708;2024-01-07T07:09:20;2.80;99.90
31783;DHT22;18351;47.560;9.708;2024-01-07T07:11:45;2.80;99.90
31783;DHT22;18351;47.560;9.708;2024-01-07T07:14:11;2.80;99.90
31783;DHT22;18351;47.560;9.708;2024-01-07T07:16:36;2.80;99.90
31783;DHT22;18351;47.560;9.708;2024-01-07T07:19:02;2.80;99.90
31783;DHT22;18351;47.560;9.708;2024-01-07T07:21:27;2.80;99.90
31783;DHT22;18351;47.560;9.708;2024-01-07T07:23:53;2.70;99.90
31783;DHT22;18351;47.560;9.708;2024-01-07T07:26:19;2.70;99.90
31783;DHT22;18351;47.560;9.708;2024-01-07T07:28:44;2.70;99.90
31783;DHT22;18351;47.560;9.708;2024-01-07T07:31:13;2.70;99.90
31783;DHT22;18351;47.560;9.708;2024-01-07T07:33:39;2.70;99.90
31783;DHT22;18351;47.560;9.708;2024-01-07T07:36:05;2.70;99.90
31783;DHT22;18351;47.560;9.708;2024-01-07T07:38:31;2.70;99.90
31783;DHT22;18351;47.560;9.708;2024-01-07T07:40:56;2.80;99.90
31783;DHT22;18351;47.560;9.708;2024-01-07T07:43:22;2.80;99.90
31783;DHT22;18351;47.560;9.708;2024-01-07T07:45:47;2.80;99.90
31783;DHT22;18351;47.560;9.708;2024-01-07T07:48:13;2.80;99.90
31783;DHT22;18351;47.560;9.708;2024-01-07T07:50:39;2.80;99.90
31783;DHT22;18351;47.560;9.708;2024-01-07T07:53:05;2.80;99.90
31783;DHT22;18351;47.560;9.708;2024-01-07T07:55:31;2.80;99.90
31783;DHT22;18351;47.560;9.708;2024-01-07T07:57:57;2.80;99.90
31783;DHT22;18351;47.560;9.708;2024-01-07T08:00:23;2.80;99.90
31783;DHT22;18351;47.560;9.708;2024-01-07T08:02:49;2.80;99.90
31783;DHT22;18351;47.560;9.708;2024-01-07T08:05:15;2.90;99.90
31783;DHT22;18351;47.560;9.708;2024-01-07T08:07:41;2.90;99.90
31783;DHT22;18351;47.560;9.708;2024-01-07T08:10:07;2.80;99.90
31783;DHT22;18351;47.560;9.708;2024-01-07T08:12:33;3.00;99.90
31783;DHT22;18351;47.560;9.708;2024-01-07T08:14:59;3.00;99.90
31783;DHT22;18351;47.560;9.708;2024-01-07T08:17:25;3.00;99.90
31783;DHT22;18351;47.560;9.708;2024-01-07T08:19:50;3.00;99.90
31783;DHT22;18351;47.560;9.708;2024-01-07T08:22:16;3.10;99.90
31783;DHT22;18351;47.560;9.708;2024-01-07T08:24:42;3.10;99.90
31783;DHT22;18351;47.560;9.708;2024-01-07T08:27:08;3.10;99.90
31783;DHT22;18351;47.560;9.708;2024-01-07T08:29:34;3.20;99.90
31783;DHT22;18351;47.560;9.708;2024-01-07T08:32:00;3.20;99.90
31783;DHT22;18351;47.560;9.708;2024-01-07T08:34:26;3.20;99.90
31783;DHT22;18351;47.560;9.708;2024-01-07T08:36:52;3.20;99.90
31783;DHT22;18351;47.560;9.708;2024-01-07T08:39:19;3.30;99.90
31783;DHT22;18351;47.560;9.708;2024-01-07T08:41:45;3.30;99.90
31783;DHT22;18351;47.560;9.708;2024-01-07T08:44:11;3.30;99.90
31783;DHT22;18351;47.560;9.708;2024-01-07T08:46:37;3.40;99.90
31783;DHT22;18351;47.560;9.708;2024-01-07T08:49:04;3.40;99.90
31783;DHT22;18351;47.560;9.708;2024-01-07T08:51:29;3.50;99.90
31783;DHT22;18351;47.560;9.708;2024-01-07T08:53:56;3.50;99.90
31783;DHT22;18351;47.560;9.708;2024-01-07T08:56:23;3.40;99.90
31783;DHT22;18351;47.560;9.708;2024-01-07T08:58:48;3.40;99.90
31783;DHT22;18351;47.560;9.708;2024-01-07T09:01:14;3.50;99.90
31783;DHT22;18351;47.560;9.708;2024-01-07T09:03:40;3.50;99.90
31783;DHT22;18351;47.560;9.708;2024-01-07T09:06:05;3.50;99.90
31783;DHT22;18351;47.560;9.708;2024-01-07T09:08:31;3.60;99.90
31783;DHT22;18351;47.560;9.708;2024-01-07T09:10:57;3.60;99.90
31783;DHT22;18351;47.560;9.708;2024-01-07T09:13:24;3.60;99.90
31783;DHT22;18351;47.560;9.708;2024-01-07T09:15:50;3.70;99.90
31783;DHT22;18351;47.560;9.708;2024-01-07T09:18:15;3.70;99.90
31783;DHT22;18351;47.560;9.708;2024-01-07T09:20:41;3.80;99.90
31783;DHT22;18351;47.560;9.708;2024-01-07T09:23:06;3.70;99.90
31783;DHT22;18351;47.560;9.708;2024-01-07T09:25:32;3.80;99.90
31783;DHT22;18351;47.560;9.708;2024-01-07T09:27:59;3.80;99.90
31783;DHT22;18351;47.560;9.708;2024-01-07T09:30:25;3.80;99.90
31783;DHT22;18351;47.560;9.708;2024-01-07T09:32:51;3.90;99.90
31783;DHT22;18351;47.560;9.708;2024-01-07T09:35:16;3.90;99.90
31783;DHT22;18351;47.560;9.708;2024-01-07T09:37:42;3.90;99.90
31783;DHT22;18351;47.560;9.708;2024-01-07T09:40:08;4.00;99.90
31783;DHT22;18351;47.560;9.708;2024-01-07T09:42:34;4.00;99.90
31783;DHT22;18351;47.560;9.708;2024-01-07T09:45:02;4.00;99.90
31783;DHT22;18351;47.560;9.708;2024-01-07T09:47:29;3.90;99.90
31783;DHT22;18351;47.560;9.708;2024-01-07T09:49:55;3.80;99.90
31783;DHT22;18351;47.560;9.708;2024-01-07T09:52:21;3.90;99.90
31783;DHT22;18351;47.560;9.708;2024-01-07T09:54:51;3.90;99.90
31783;DHT22;18351;47.560;9.708;2024-01-07T09:57:17;3.90;99.90
31783;DHT22;18351;47.560;9.708;2024-01-07T09:59:42;3.90;99.90
31783;DHT22;18351;47.560;9.708;2024-01-07T10:02:08;3.90;99.90
31783;DHT22;18351;47.560;9.708;2024-01-07T10:04:35;4.00;99.90
31783;DHT22;18351;47.560;9.708;2024-01-07T10:07:01;4.00;99.90
31783;DHT22;18351;47.560;9.708;2024-01-07T10:09:32;4.00;99.90
31783;DHT22;18351;47.560;9.708;2024-01-07T10:11:58;4.00;99.90
31783;DHT22;18351;47.560;9.708;2024-01-07T10:14:23;4.00;99.90
31783;DHT22;18351;47.560;9.708;2024-01-07T10:16:52;4.10;99.90
31783;DHT22;18351;47.560;9.708;2024-01-07T10:19:24;4.10;99.90
31783;DHT22;18351;47.560;9.708;2024-01-07T10:21:59;4.10;99.90
31783;DHT22;18351;47.560;9.708;2024-01-07T10:24:25;4.10;99.90
31783;DHT22;18351;47.560;9.708;2024-01-07T10:26:50;4.00;99.90
31783;DHT22;18351;47.560;9.708;2024-01-07T10:29:16;4.00;99.90
31783;DHT22;18351;47.560;9.708;2024-01-07T10:31:41;4.10;99.90
31783;DHT22;18351;47.560;9.708;2024-01-07T10:34:09;4.10;99.90
31783;DHT22;18351;47.560;9.708;2024-01-07T10:36:36;4.10;99.90
31783;DHT22;18351;47.560;9.708;2024-01-07T10:39:03;4.20;99.90
31783;DHT22;18351;47.560;9.708;2024-01-07T10:41:29;4.20;99.90
31783;DHT22;18351;47.560;9.708;2024-01-07T10:43:55;4.20;99.90
31783;DHT22;18351;47.560;9.708;2024-01-07T10:46:21;4.20;99.90
31783;DHT22;18351;47.560;9.708;2024-01-07T10:49:00;4.20;99.90
31783;DHT22;18351;47.560;9.708;2024-01-07T10:51:28;4.20;99.90
31783;DHT22;18351;47.560;9.708;2024-01-07T10:53:55;4.20;99.90
31783;DHT22;18351;47.560;9.708;2024-01-07T10:56:28;4.20;99.90
31783;DHT22;18351;47.560;9.708;2024-01-07T10:58:56;4.20;99.90
31783;DHT22;18351;47.560;9.708;2024-01-07T11:01:26;4.20;99.90
31783;DHT22;18351;47.560;9.708;2024-01-07T11:04:06;4.10;99.90
31783;DHT22;18351;47.560;9.708;2024-01-07T11:11:50;4.00;99.90
31783;DHT22;18351;47.560;9.708;2024-01-07T11:14:38;4.00;99.90
31783;DHT22;18351;47.560;9.708;2024-01-07T11:17:08;4.00;99.90
31783;DHT22;18351;47.560;9.708;2024-01-07T11:19:36;3.90;99.90
31783;DHT22;18351;47.560;9.708;2024-01-07T11:22:31;4.00;99.90
31783;DHT22;18351;47.560;9.708;2024-01-07T11:24:59;4.00;99.90
31783;DHT22;18351;47.560;9.708;2024-01-07T11:27:31;4.10;99.90
31783;DHT22;18351;47.560;9.708;2024-01-07T11:32:57;4.00;99.90
31783;DHT22;18351;47.560;9.708;2024-01-07T11:35:54;4.00;99.90
31783;DHT22;18351;47.560;9.708;2024-01-07T11:38:22;4.10;99.90
31783;DHT22;18351;47.560;9.708;2024-01-07T11:40:49;4.00;99.90
31783;DHT22;18351;47.560;9.708;2024-01-07T11:43:15;4.00;99.90
31783;DHT22;18351;47.560;9.708;2024-01-07T11:45:41;4.00;99.90
31783;DHT22;18351;47.560;9.708;2024-01-07T11:48:07;4.00;99.90
31783;DHT22;18351;47.560;9.708;2024-01-07T11:50:32;4.00;99.90
31783;DHT22;18351;47.560;9.708;2024-01-07T11:52:58;4.00;99.90
31783;DHT22;18351;47.560;9.708;2024-01-07T11:55:24;3.90;99.90
31783;DHT22;18351;47.560;9.708;2024-01-07T11:57:51;3.90;99.90
31783;DHT22;18351;47.560;9.708;2024-01-07T12:00:17;3.90;99.90
31783;DHT22;18351;47.560;9.708;2024-01-07T12:02:43;3.80;99.90
31783;DHT22;18351;47.560;9.708;2024-01-07T12:05:08;3.80;99.90
31783;DHT22;18351;47.560;9.708;2024-01-07T12:07:34;3.80;99.90
31783;DHT22;18351;47.560;9.708;2024-01-07T12:10:02;3.80;99.90
31783;DHT22;18351;47.560;9.708;2024-01-07T12:12:28;3.90;99.90
31783;DHT22;18351;47.560;9.708;2024-01-07T12:14:55;3.80;99.90
31783;DHT22;18351;47.560;9.708;2024-01-07T12:17:21;3.90;99.90
31783;DHT22;18351;47.560;9.708;2024-01-07T12:19:47;3.90;99.90
31783;DHT22;18351;47.560;9.708;2024-01-07T12:22:13;3.90;99.90
31783;DHT22;18351;47.560;9.708;2024-01-07T12:24:38;3.80;99.90
31783;DHT22;18351;47.560;9.708;2024-01-07T12:27:05;3.80;99.90
31783;DHT22;18351;47.560;9.708;2024-01-07T12:29:30;3.80;99.90
31783;DHT22;18351;47.560;9.708;2024-01-07T12:31:56;3.80;99.90
31783;DHT22;18351;47.560;9.708;2024-01-07T12:34:21;3.80;99.90
31783;DHT22;18351;47.560;9.708;2024-01-07T12:36:50;3.80;99.90
31783;DHT22;18351;47.560;9.708;2024-01-07T12:39:16;3.70;99.90
31783;DHT22;18351;47.560;9.708;2024-01-07T12:41:43;3.70;99.90
31783;DHT22;18351;47.560;9.708;2024-01-07T12:44:08;3.80;99.90
31783;DHT22;18351;47.560;9.708;2024-01-07T12:46:35;3.80;99.90
31783;DHT22;18351;47.560;9.708;2024-01-07T12:49:00;3.80;99.90
31783;DHT22;18351;47.560;9.708;2024-01-07T12:51:26;3.80;99.90
31783;DHT22;18351;47.560;9.708;2024-01-07T12:53:51;3.80;99.90
31783;DHT22;18351;47.560;9.708;2024-01-07T12:56:17;3.70;99.90
31783;DHT22;18351;47.560;9.708;2024-01-07T12:58:42;3.60;99.90
31783;DHT22;18351;47.560;9.708;2024-01-07T13:01:08;3.70;99.90
31783;DHT22;18351;47.560;9.708;2024-01-07T13:03:34;3.70;99.90
31783;DHT22;18351;47.560;9.708;2024-01-07T13:06:00;3.60;99.90
31783;DHT22;18351;47.560;9.708;2024-01-07T13:08:26;3.60;99.90
31783;DHT22;18351;47.560;9.708;2024-01-07T13:10:53;3.60;99.90
31783;DHT22;18351;47.560;9.708;2024-01-07T13:13:19;3.60;99.90
31783;DHT22;18351;47.560;9.708;2024-01-07T13:15:44;3.70;99.90
31783;DHT22;18351;47.560;9.708;2024-01-07T13:18:10;3.70;99.90
31783;DHT22;18351;47.560;9.708;2024-01-07T13:20:37;3.70;99.90
31783;DHT22;18351;47.560;9.708;2024-01-07T13:23:05;3.70;99.90
31783;DHT22;18351;47.560;9.708;2024-01-07T13:25:30;3.70;99.90
31783;DHT22;18351;47.560;9.708;2024-01-07T13:27:56;3.70;99.90
31783;DHT22;18351;47.560;9.708;2024-01-07T13:30:22;3.60;99.90
31783;DHT22;18351;47.560;9.708;2024-01-07T13:32:48;3.40;99.90
31783;DHT22;18351;47.560;9.708;2024-01-07T13:35:14;3.40;99.90
31783;DHT22;18351;47.560;9.708;2024-01-07T13:37:40;3.40;99.90
31783;DHT22;18351;47.560;9.708;2024-01-07T13:40:10;3.40;99.90
31783;DHT22;18351;47.560;9.708;2024-01-07T13:42:39;3.40;99.90
31783;DHT22;18351;47.560;9.708;2024-01-07T13:45:05;3.40;99.90
31783;DHT22;18351;47.560;9.708;2024-01-07T13:47:31;3.30;99.90
31783;DHT22;18351;47.560;9.708;2024-01-07T13:49:57;3.30;99.90
31783;DHT22;18351;47.560;9.708;2024-01-07T13:52:22;3.30;99.90
31783;DHT22;18351;47.560;9.708;2024-01-07T13:54:48;3.30;99.90
31783;DHT22;18351;47.560;9.708;2024-01-07T13:57:13;3.20;99.90
31783;DHT22;18351;47.560;9.708;2024-01-07T13:59:39;3.20;99.90
31783;DHT22;18351;47.560;9.708;2024-01-07T14:02:07;3.10;99.90
31783;DHT22;18351;47.560;9.708;2024-01-07T14:04:33;3.10;99.90
31783;DHT22;18351;47.560;9.708;2024-01-07T14:06:59;3.10;99.90
31783;DHT22;18351;47.560;9.708;2024-01-07T14:09:25;3.10;99.90
31783;DHT22;18351;47.560;9.708;2024-01-07T14:11:51;3.10;99.90
31783;DHT22;18351;47.560;9.708;2024-01-07T14:14:17;3.10;99.90
31783;DHT22;18351;47.560;9.708;2024-01-07T14:16:44;3.10;99.90
31783;DHT22;18351;47.560;9.708;2024-01-07T14:19:10;3.10;99.90
31783;DHT22;18351;47.560;9.708;2024-01-07T14:21:36;3.10;99.90
31783;DHT22;18351;47.560;9.708;2024-01-07T14:24:01;3.00;99.90
31783;DHT22;18351;47.560;9.708;2024-01-07T14:26:28;3.00;99.90
31783;DHT22;18351;47.560;9.708;2024-01-07T14:28:54;3.00;99.90
31783;DHT22;18351;47.560;9.708;2024-01-07T14:31:20;3.00;99.90
31783;DHT22;18351;47.560;9.708;2024-01-07T14:33:45;3.00;99.90
31783;DHT22;18351;47.560;9.708;2024-01-07T14:36:11;2.90;99.90
31783;DHT22;18351;47.560;9.708;2024-01-07T14:38:44;2.90;99.90
31783;DHT22;18351;47.560;9.708;2024-01-07T14:41:11;2.90;99.90
31783;DHT22;18351;47.560;9.708;2024-01-07T14:43:36;2.80;99.90
31783;DHT22;18351;47.560;9.708;2024-01-07T14:46:03;2.80;99.90
31783;DHT22;18351;47.560;9.708;2024-01-07T14:48:29;2.80;99.90
31783;DHT22;18351;47.560;9.708;2024-01-07T14:50:55;2.80;99.90
31783;DHT22;18351;47.560;9.708;2024-01-07T14:53:20;2.70;99.90
31783;DHT22;18351;47.560;9.708;2024-01-07T14:55:46;2.70;99.90
31783;DHT22;18351;47.560;9.708;2024-01-07T14:58:12;2.70;99.90
31783;DHT22;18351;47.560;9.708;2024-01-07T15:00:38;2.70;99.90
31783;DHT22;18351;47.560;9.708;2024-01-07T15:03:04;2.60;99.90
31783;DHT22;18351;47.560;9.708;2024-01-07T15:05:30;2.60;99.90
31783;DHT22;18351;47.560;9.708;2024-01-07T15:07:55;2.60;99.90
31783;DHT22;18351;47.560;9.708;2024-01-07T15:10:21;2.50;99.90
31783;DHT22;18351;47.560;9.708;2024-01-07T15:12:47;2.50;99.90
31783;DHT22;18351;47.560;9.708;2024-01-07T15:15:14;2.50;99.90
31783;DHT22;18351;47.560;9.708;2024-01-07T15:17:40;2.50;99.90
31783;DHT22;18351;47.560;9.708;2024-01-07T15:20:06;2.50;99.90
31783;DHT22;18351;47.560;9.708;2024-01-07T15:22:32;2.50;99.90
31783;DHT22;18351;47.560;9.708;2024-01-07T15:24:59;2.40;99.90
31783;DHT22;18351;47.560;9.708;2024-01-07T15:27:25;2.40;99.90
31783;DHT22;18351;47.560;9.708;2024-01-07T15:29:50;2.30;99.90
31783;DHT22;18351;47.560;9.708;2024-01-07T15:32:16;2.30;99.90
31783;DHT22;18351;47.560;9.708;2024-01-07T15:34:41;2.40;99.90
31783;DHT22;18351;47.560;9.708;2024-01-07T15:37:07;2.30;99.90
31783;DHT22;18351;47.560;9.708;2024-01-07T15:39:32;2.30;99.90
31783;DHT22;18351;47.560;9.708;2024-01-07T15:41:59;2.30;99.90
31783;DHT22;18351;47.560;9.708;2024-01-07T15:44:25;2.20;99.90
31783;DHT22;18351;47.560;9.708;2024-01-07T15:46:52;2.30;99.90